Time;durP1;ratioP1;P1;durP2;ratioP2;P2;SDS_P1;SDS_P2;PMS_P1;PMS_P2;Temp;Humidity;BMP_temperature;BMP_pressure;BME280_temperature;BME280_humidity;BME280_pressure;Samples;Min_cycle;Max_cycle;Signal;HPM_P1;HPM_P2
2022/05/09 00:02:11;;;;;;;12.55;4.65;;;19.10;69.90;;;;;;5034192;28;20060;-69
2022/05/09 00:04:37;;;;;;;9.27;4.50;;;19.10;69.80;;;;;;5034624;28;20088;-69
2022/05/09 00:07:04;;;;;;;10.43;4.68;;;19.20;69.80;;;;;;5034874;28;20112;-69
2022/05/09 00:09:30;;;;;;;9.27;4.80;;;19.20;69.90;;;;;;5034673;28;20025;-69
2022/05/09 00:11:56;;;;;;;12.00;4.57;;;19.20;69.80;;;;;;5034761;28;20064;-70
2022/05/09 00:14:22;;;;;;;10.73;4.25;;;19.30;69.60;;;;;;5034791;28;20049;-69
2022/05/09 00:16:50;;;;;;;11.50;4.80;;;19.30;69.60;;;;;;5034683;28;20105;-69
2022/05/09 00:19:17;;;;;;;9.32;4.63;;;19.20;69.60;;;;;;5034518;28;20021;-68
2022/05/09 00:21:44;;;;;;;13.48;5.50;;;19.20;69.70;;;;;;5034461;28;20035;-69
2022/05/09 00:24:15;;;;;;;13.68;4.78;;;19.20;69.90;;;;;;5033254;28;20038;-69
2022/05/09 00:26:45;;;;;;;13.85;5.07;;;19.20;69.80;;;;;;5034802;28;20068;-69
2022/05/09 00:29:12;;;;;;;9.85;4.85;;;19.20;69.90;;;;;;5034766;28;20084;-70
2022/05/09 00:31:40;;;;;;;13.65;5.68;;;19.20;70.20;;;;;;5034473;28;20056;-70
2022/05/09 00:34:07;;;;;;;14.90;5.38;;;19.20;70.20;;;;;;5034315;28;20053;-68
2022/05/09 00:36:33;;;;;;;9.35;4.88;;;19.20;70.30;;;;;;5034026;28;20049;-69
2022/05/09 00:39:01;;;;;;;12.48;5.43;;;19.20;70.30;;;;;;5034410;28;20026;-69
2022/05/09 00:41:37;;;;;;;11.38;5.25;;;19.20;70.50;;;;;;5034200;28;20033;-69
2022/05/09 00:44:09;;;;;;;9.30;4.97;;;19.10;70.90;;;;;;5033848;28;20071;-70
2022/05/09 00:46:37;;;;;;;11.73;5.05;;;19.00;70.70;;;;;;5034132;28;20080;-71
2022/05/09 00:49:27;;;;;;;9.70;5.20;;;19.00;70.70;;;;;;5034094;28;20101;-69
2022/05/09 00:52:08;;;;;;;10.98;4.78;;;19.00;71.00;;;;;;5033456;28;20037;-69
2022/05/09 00:54:41;;;;;;;11.23;5.10;;;18.90;72.00;;;;;;5033899;28;20034;-69
2022/05/09 00:57:24;;;;;;;10.47;5.20;;;18.90;71.40;;;;;;5033940;28;20141;-69
2022/05/09 00:59:52;;;;;;;12.18;5.20;;;18.90;71.60;;;;;;5033941;28;20025;-69
2022/05/09 01:02:19;;;;;;;15.00;5.43;;;18.80;72.10;;;;;;5034049;28;20028;-70
2022/05/09 01:04:53;;;;;;;12.52;5.05;;;18.80;72.20;;;;;;5033676;28;20025;-69
2022/05/09 01:07:19;;;;;;;8.27;4.68;;;18.90;72.50;;;;;;5033764;28;20387;-70
2022/05/09 01:09:45;;;;;;;10.63;5.20;;;18.80;72.10;;;;;;5033654;28;20458;-69
2022/05/09 01:12:14;;;;;;;11.43;4.78;;;18.80;72.50;;;;;;5033966;28;20034;-70
2022/05/09 01:14:39;;;;;;;9.23;4.82;;;18.80;72.20;;;;;;5033424;28;20032;-69
2022/05/09 01:17:06;;;;;;;9.63;5.13;;;18.80;72.50;;;;;;5033664;28;20029;-69
2022/05/09 01:19:47;;;;;;;8.63;4.70;;;18.80;72.50;;;;;;5032188;28;20497;-70
2022/05/09 01:22:34;;;;;;;7.93;4.28;;;18.80;72.40;;;;;;5033371;28;20037;-69
2022/05/09 01:25:03;;;;;;;9.73;4.53;;;18.80;73.40;;;;;;5033365;28;20057;-69
2022/05/09 01:27:33;;;;;;;11.25;5.03;;;18.80;72.70;;;;;;5033570;28;20041;-70
2022/05/09 01:30:13;;;;;;;10.57;5.10;;;18.80;72.90;;;;;;5033466;28;20017;-69
2022/05/09 01:33:10;;;;;;;8.23;4.65;;;18.80;73.70;;;;;;5033303;28;20033;-70
2022/05/09 01:35:57;;;;;;;10.70;4.78;;;18.80;74.20;;;;;;5032041;28;20080;-69
2022/05/09 01:38:35;;;;;;;9.77;4.63;;;18.70;73.40;;;;;;5033502;28;20069;-69
2022/05/09 01:41:01;;;;;;;12.65;4.80;;;18.70;73.70;;;;;;5033384;28;20025;-69
2022/05/09 01:43:35;;;;;;;10.25;4.95;;;18.60;73.80;;;;;;5033392;28;20409;-70
2022/05/09 01:46:07;;;;;;;8.77;4.60;;;18.60;74.10;;;;;;5033332;28;20032;-69
2022/05/09 01:51:18;;;;;;;8.55;5.05;;;18.60;74.00;;;;;;5033865;28;20132;-69
2022/05/09 01:53:52;;;;;;;10.18;5.07;;;18.70;74.30;;;;;;5031942;28;20104;-69
2022/05/09 01:56:25;;;;;;;10.38;4.88;;;18.60;74.40;;;;;;5033894;28;20021;-69
2022/05/09 01:58:51;;;;;;;11.18;4.97;;;18.60;74.50;;;;;;5034069;28;20024;-69
2022/05/09 02:01:18;;;;;;;12.63;4.68;;;18.60;74.50;;;;;;5033178;28;20037;-70
2022/05/09 02:03:45;;;;;;;10.13;4.57;;;18.60;74.80;;;;;;5032986;28;20104;-69
2022/05/09 02:06:11;;;;;;;11.40;4.57;;;18.60;74.80;;;;;;5032917;28;20025;-70
2022/05/09 02:08:38;;;;;;;9.80;4.95;;;18.60;75.00;;;;;;5031538;28;20034;-70
2022/05/09 02:11:04;;;;;;;12.10;4.90;;;18.50;75.10;;;;;;5033145;28;20026;-69
2022/05/09 02:13:30;;;;;;;10.80;5.00;;;18.50;75.40;;;;;;5031599;28;20025;-67
2022/05/09 02:15:55;;;;;;;9.50;4.80;;;18.50;75.80;;;;;;5032894;28;20032;-69
2022/05/09 02:18:21;;;;;;;12.80;5.03;;;18.50;76.10;;;;;;5033011;28;20032;-69
2022/05/09 02:20:47;;;;;;;10.50;4.53;;;18.50;76.00;;;;;;5031648;28;20029;-70
2022/05/09 02:23:13;;;;;;;9.95;5.13;;;18.50;75.70;;;;;;5033115;28;20037;-70
2022/05/09 02:25:41;;;;;;;8.90;4.47;;;18.50;75.70;;;;;;5034571;28;20013;-69
2022/05/09 02:28:06;;;;;;;10.52;5.20;;;18.50;75.80;;;;;;5036678;28;20486;-69
2022/05/09 02:30:32;;;;;;;9.27;4.80;;;18.50;75.80;;;;;;5036411;28;20021;-68
2022/05/09 02:32:58;;;;;;;9.35;4.32;;;18.50;75.90;;;;;;5035353;28;20071;-70
2022/05/09 02:35:24;;;;;;;13.18;4.57;;;18.50;76.00;;;;;;5036498;28;20041;-69
2022/05/09 02:37:52;;;;;;;11.75;5.18;;;18.50;75.80;;;;;;5036119;28;20495;-67
2022/05/09 02:40:18;;;;;;;9.00;5.50;;;18.50;75.90;;;;;;5036420;28;20022;-69
2022/05/09 02:42:46;;;;;;;13.07;5.28;;;18.50;75.80;;;;;;5036264;28;20033;-68
2022/05/09 02:45:12;;;;;;;10.85;4.93;;;18.50;76.40;;;;;;5036225;28;20021;-69
2022/05/09 02:47:40;;;;;;;9.40;4.75;;;18.40;75.20;;;;;;5036474;28;20104;-70
2022/05/09 02:50:09;;;;;;;13.50;4.72;;;18.40;75.00;;;;;;5036573;28;20347;-69
2022/05/09 02:52:36;;;;;;;8.48;4.53;;;18.40;74.90;;;;;;5036006;28;20076;-69
2022/05/09 02:55:03;;;;;;;8.40;5.28;;;18.40;74.60;;;;;;5036103;28;20021;-70
2022/05/09 02:57:29;;;;;;;12.55;4.97;;;18.30;74.50;;;;;;5036363;28;20416;-69
2022/05/09 02:59:54;;;;;;;12.32;4.90;;;18.40;74.50;;;;;;5036200;28;20062;-68
2022/05/09 03:02:20;;;;;;;14.85;5.00;;;18.30;74.50;;;;;;5036034;28;20090;-68
2022/05/09 03:04:46;;;;;;;12.52;4.97;;;18.40;74.20;;;;;;5034615;28;20061;-70
2022/05/09 03:07:14;;;;;;;8.60;4.28;;;18.30;73.70;;;;;;5035930;28;20017;-69
2022/05/09 03:09:41;;;;;;;9.70;4.30;;;18.30;72.90;;;;;;5035841;28;20104;-69
2022/05/09 03:12:08;;;;;;;10.57;5.00;;;18.20;72.60;;;;;;5035899;28;20021;-68
2022/05/09 03:14:36;;;;;;;7.82;4.10;;;18.20;72.30;;;;;;5035789;28;20021;-69
2022/05/09 03:17:02;;;;;;;11.82;4.45;;;18.10;71.50;;;;;;5035560;28;20053;-69
2022/05/09 03:19:27;;;;;;;12.63;5.00;;;18.10;71.60;;;;;;5035628;28;20140;-69
2022/05/09 03:21:53;;;;;;;10.82;4.72;;;18.10;71.40;;;;;;5035766;28;20116;-68
2022/05/09 03:24:19;;;;;;;11.50;4.70;;;18.10;71.00;;;;;;5035481;28;20474;-68
2022/05/09 03:26:49;;;;;;;8.52;4.63;;;18.10;71.40;;;;;;5035567;28;20025;-68
2022/05/09 03:29:16;;;;;;;14.90;5.13;;;18.00;71.10;;;;;;5036160;28;20033;-69
2022/05/09 03:31:42;;;;;;;10.23;4.80;;;18.10;71.20;;;;;;5031962;28;20101;-69
2022/05/09 03:34:08;;;;;;;15.20;4.80;;;18.10;70.90;;;;;;5033963;28;20053;-70
2022/05/09 03:36:34;;;;;;;10.05;4.63;;;18.10;70.80;;;;;;5035280;28;20533;-68
2022/05/09 03:39:01;;;;;;;14.68;4.93;;;18.00;70.70;;;;;;5035352;28;20071;-69
2022/05/09 03:41:26;;;;;;;12.55;5.05;;;18.10;71.30;;;;;;5035553;28;20025;-68
2022/05/09 03:43:52;;;;;;;13.18;5.45;;;18.00;70.30;;;;;;5035134;28;20060;-69
2022/05/09 03:46:18;;;;;;;19.60;4.53;;;18.00;70.40;;;;;;5034022;28;20025;-68
2022/05/09 03:48:44;;;;;;;13.75;5.80;;;18.00;70.40;;;;;;5028492;28;20498;-69
2022/05/09 03:51:10;;;;;;;12.57;4.93;;;18.00;70.60;;;;;;5031470;28;20052;-69
2022/05/09 03:53:36;;;;;;;14.43;5.50;;;17.90;70.80;;;;;;5034830;28;20118;-70
2022/05/09 03:56:03;;;;;;;11.15;4.93;;;18.00;71.20;;;;;;5032915;28;20029;-70
2022/05/09 03:58:29;;;;;;;10.82;4.88;;;18.00;70.90;;;;;;5034810;28;20022;-68
2022/05/09 04:00:54;;;;;;;12.55;4.88;;;18.00;71.00;;;;;;5034918;28;20025;-69
2022/05/09 04:03:20;;;;;;;14.52;5.90;;;18.00;71.10;;;;;;5034972;28;20037;-71
2022/05/09 04:05:46;;;;;;;11.27;5.53;;;17.90;71.40;;;;;;5034602;28;20383;-70
2022/05/09 04:08:17;;;;;;;10.43;5.40;;;17.90;71.80;;;;;;5033457;28;20382;-68
2022/05/09 04:10:45;;;;;;;10.55;5.35;;;17.90;72.10;;;;;;5034858;28;20025;-69
2022/05/09 04:13:11;;;;;;;11.20;5.25;;;17.90;72.70;;;;;;5034849;28;20486;-68
2022/05/09 04:18:26;;;;;;;12.18;5.85;;;17.90;73.40;;;;;;5034878;28;20037;-70
2022/05/09 04:20:52;;;;;;;11.93;5.55;;;17.90;73.60;;;;;;5034316;28;20029;-70
2022/05/09 04:23:18;;;;;;;11.80;5.57;;;18.00;73.00;;;;;;5034560;28;20144;-70
2022/05/09 04:25:45;;;;;;;10.90;5.40;;;18.00;73.30;;;;;;5033093;28;20095;-69
2022/05/09 04:28:12;;;;;;;11.32;5.82;;;18.00;73.20;;;;;;5034540;28;20375;-70
2022/05/09 04:30:38;;;;;;;14.38;6.07;;;18.00;73.40;;;;;;5034722;28;20014;-70
2022/05/09 04:33:06;;;;;;;9.63;5.05;;;18.00;73.40;;;;;;5034375;28;20419;-70
2022/05/09 04:35:33;;;;;;;9.57;5.07;;;18.00;73.50;;;;;;5034187;28;20030;-69
2022/05/09 04:37:59;;;;;;;10.23;5.30;;;18.00;73.60;;;;;;5034309;28;20041;-70
2022/05/09 04:40:30;;;;;;;14.77;5.70;;;18.00;73.90;;;;;;5033997;28;20025;-70
2022/05/09 04:42:58;;;;;;;11.23;5.20;;;18.00;73.70;;;;;;5034096;28;20073;-70
2022/05/09 04:45:24;;;;;;;14.60;5.78;;;18.00;73.40;;;;;;5034058;28;20018;-69
2022/05/09 04:47:51;;;;;;;16.38;5.80;;;18.00;73.20;;;;;;5033699;28;20087;-69
2022/05/09 04:50:20;;;;;;;11.10;5.18;;;18.00;73.00;;;;;;5033984;28;20029;-69
2022/05/09 04:52:45;;;;;;;12.82;5.28;;;18.00;72.70;;;;;;5033742;28;20386;-70
2022/05/09 04:55:12;;;;;;;12.85;5.13;;;18.10;71.30;;;;;;5033660;28;20021;-69
2022/05/09 04:57:39;;;;;;;10.05;4.97;;;18.20;71.10;;;;;;5033847;28;20064;-69
2022/05/09 05:00:08;;;;;;;10.73;5.00;;;18.20;70.80;;;;;;5034636;28;20077;-70
2022/05/09 05:02:33;;;;;;;14.38;4.95;;;18.30;70.90;;;;;;5034282;28;20030;-71
2022/05/09 05:04:59;;;;;;;9.88;5.28;;;18.30;70.60;;;;;;5033362;28;20033;-71
2022/05/09 05:07:25;;;;;;;10.73;4.95;;;18.40;70.60;;;;;;5033619;28;20026;-71
2022/05/09 05:09:51;;;;;;;14.15;5.28;;;18.40;69.40;;;;;;5033741;28;20100;-70
2022/05/09 05:12:16;;;;;;;11.30;4.93;;;18.40;68.90;;;;;;5033470;28;20520;-70
2022/05/09 05:14:42;;;;;;;12.15;4.97;;;18.30;68.70;;;;;;5032221;28;20033;-72
2022/05/09 05:17:08;;;;;;;9.70;5.35;;;18.30;68.30;;;;;;5033720;28;20064;-70
2022/05/09 05:19:36;;;;;;;11.77;4.93;;;18.30;68.50;;;;;;5032368;28;20509;-70
2022/05/09 05:22:04;;;;;;;8.30;5.25;;;18.30;67.90;;;;;;5033175;28;20371;-70
2022/05/09 05:24:38;;;;;;;11.27;4.78;;;18.20;68.20;;;;;;5033196;28;20474;-68
2022/05/09 05:27:05;;;;;;;14.23;5.15;;;18.30;68.40;;;;;;5033440;28;20025;-71
2022/05/09 05:29:31;;;;;;;10.68;4.90;;;18.30;68.50;;;;;;5033362;28;20036;-69
2022/05/09 05:31:57;;;;;;;17.27;5.10;;;18.30;68.80;;;;;;5033228;28;20021;-71
2022/05/09 05:34:23;;;;;;;15.25;4.93;;;18.50;68.30;;;;;;5032976;28;20313;-70
2022/05/09 05:36:54;;;;;;;12.52;5.53;;;18.60;68.10;;;;;;5032807;28;20049;-70
2022/05/09 05:39:19;;;;;;;14.13;5.05;;;18.80;67.90;;;;;;5032897;28;20026;-70
2022/05/09 05:41:45;;;;;;;9.25;4.60;;;18.90;66.30;;;;;;5032855;28;20116;-69
2022/05/09 05:44:12;;;;;;;9.20;5.07;;;19.10;65.70;;;;;;5032591;28;20094;-69
2022/05/09 05:46:41;;;;;;;9.30;4.95;;;19.10;65.40;;;;;;5032624;28;20132;-69
2022/05/09 05:49:09;;;;;;;9.68;5.47;;;19.30;65.80;;;;;;5032513;28;20018;-70
2022/05/09 05:51:36;;;;;;;19.17;5.40;;;19.40;66.10;;;;;;5031614;28;20101;-70
2022/05/09 05:54:05;;;;;;;12.77;5.38;;;19.50;65.40;;;;;;5032490;28;20053;-69
2022/05/09 05:56:36;;;;;;;14.43;5.82;;;19.60;64.20;;;;;;5032789;28;20032;-69
2022/05/09 05:59:01;;;;;;;15.27;6.40;;;19.80;65.00;;;;;;5032739;28;20107;-71
2022/05/09 06:01:27;;;;;;;12.98;5.43;;;19.90;64.20;;;;;;5035693;28;20025;-69
2022/05/09 06:03:53;;;;;;;10.60;5.80;;;20.00;64.20;;;;;;5034997;28;20039;-70
2022/05/09 06:06:18;;;;;;;14.63;5.22;;;20.10;64.40;;;;;;5035151;28;20029;-70
2022/05/09 06:08:45;;;;;;;11.18;5.30;;;20.30;64.10;;;;;;5036330;28;20036;-73
2022/05/09 06:11:13;;;;;;;17.65;5.72;;;20.50;64.30;;;;;;5036578;28;20026;-70
2022/05/09 06:13:38;;;;;;;11.93;5.10;;;20.60;64.10;;;;;;5035165;28;20025;-71
2022/05/09 06:16:04;;;;;;;11.60;5.90;;;20.90;62.50;;;;;;5035966;28;20063;-71
2022/05/09 06:18:30;;;;;;;14.65;5.15;;;21.00;62.50;;;;;;5036714;28;20062;-72
2022/05/09 06:20:56;;;;;;;16.10;5.28;;;21.10;63.10;;;;;;5036214;28;20092;-71
2022/05/09 06:23:22;;;;;;;14.43;5.13;;;21.20;63.30;;;;;;5036312;28;20042;-73
2022/05/09 06:25:49;;;;;;;17.33;5.55;;;21.40;63.10;;;;;;5036093;28;20025;-70
2022/05/09 06:28:16;;;;;;;13.38;5.47;;;21.70;62.70;;;;;;5036100;28;20104;-71
2022/05/09 06:30:42;;;;;;;14.40;5.32;;;21.90;62.20;;;;;;5035851;28;20026;-69
2022/05/09 06:33:08;;;;;;;14.38;5.22;;;22.00;61.60;;;;;;5035958;28;20123;-73
2022/05/09 06:35:43;;;;;;;11.85;5.07;;;22.00;60.90;;;;;;5035999;28;20104;-73
2022/05/09 06:38:10;;;;;;;15.23;5.22;;;22.10;60.70;;;;;;5034784;28;20080;-73
2022/05/09 06:40:36;;;;;;;10.68;4.50;;;22.10;60.90;;;;;;5034862;28;20454;-72
2022/05/09 06:43:03;;;;;;;11.98;5.35;;;21.90;60.30;;;;;;5034724;28;20033;-72
2022/05/09 06:45:30;;;;;;;9.55;4.43;;;21.80;60.90;;;;;;5034812;28;20096;-73
2022/05/09 06:47:57;;;;;;;11.10;4.82;;;21.80;60.90;;;;;;5034772;28;20021;-73
2022/05/09 06:50:26;;;;;;;17.67;4.63;;;22.00;60.50;;;;;;5034822;28;20025;-74
2022/05/09 06:52:51;;;;;;;10.27;4.78;;;22.30;60.50;;;;;;5034658;28;20049;-75
2022/05/09 06:55:17;;;;;;;14.85;4.43;;;22.60;59.70;;;;;;5034680;28;20056;-75
2022/05/09 06:57:45;;;;;;;17.20;5.47;;;22.70;58.70;;;;;;5033239;28;20487;-74
2022/05/09 07:00:17;;;;;;;11.60;4.55;;;22.70;58.20;;;;;;5034671;28;20117;-74
2022/05/09 07:02:43;;;;;;;11.65;4.28;;;22.90;57.60;;;;;;5034730;28;20033;-73
2022/05/09 07:05:12;;;;;;;13.45;4.22;;;23.10;56.60;;;;;;5034584;28;20018;-74
2022/05/09 07:07:39;;;;;;;11.13;3.95;;;23.10;56.30;;;;;;5034688;28;20108;-71
2022/05/09 07:10:05;;;;;;;11.00;3.88;;;23.20;56.50;;;;;;5032826;28;20435;-74
2022/05/09 07:12:31;;;;;;;10.23;3.95;;;23.30;55.90;;;;;;5034019;28;20037;-74
2022/05/09 07:14:57;;;;;;;31.10;6.57;;;23.40;55.30;;;;;;5034375;28;20079;-74
2022/05/09 07:17:23;;;;;;;11.73;3.70;;;23.40;55.50;;;;;;5034452;28;20101;-72
2022/05/09 07:19:48;;;;;;;14.35;4.10;;;23.40;54.30;;;;;;5034762;28;20030;-74
2022/05/09 07:22:14;;;;;;;16.23;4.60;;;23.50;54.40;;;;;;5033256;28;20033;-74
2022/05/09 07:24:43;;;;;;;9.68;3.67;;;23.70;54.10;;;;;;5034334;28;20026;-74
2022/05/09 07:27:08;;;;;;;13.88;3.65;;;23.80;53.70;;;;;;5033236;28;20025;-71
2022/05/09 07:29:34;;;;;;;15.90;3.80;;;23.90;53.80;;;;;;5034332;28;20021;-73
2022/05/09 07:32:01;;;;;;;15.60;8.63;;;24.00;53.10;;;;;;5034177;28;20059;-76
2022/05/09 07:34:27;;;;;;;28.48;5.43;;;24.00;52.20;;;;;;5033975;28;20072;-73
2022/05/09 07:38:35;;;;;;;14.13;4.45;;;24.10;52.50;;;;;;5070577;28;20390;-74
2022/05/09 07:41:01;;;;;;;13.77;4.10;;;24.10;53.20;;;;;;5070230;28;20523;-74
2022/05/09 07:43:29;;;;;;;14.13;3.90;;;24.30;52.60;;;;;;5070406;28;20469;-74
2022/05/09 07:45:55;;;;;;;10.38;3.95;;;24.50;52.50;;;;;;5069987;28;20017;-75
2022/05/09 07:48:26;;;;;;;13.82;3.80;;;24.50;52.00;;;;;;5070163;28;20120;-74
2022/05/09 07:50:54;;;;;;;19.65;4.65;;;24.60;51.70;;;;;;5070580;28;20416;-75
2022/05/09 07:53:32;;;;;;;16.08;4.63;;;24.50;51.50;;;;;;5070626;28;20327;-73
2022/05/09 07:56:00;;;;;;;21.35;4.72;;;24.60;51.60;;;;;;5068933;28;20172;-76
2022/05/09 07:58:26;;;;;;;11.80;4.00;;;24.70;51.40;;;;;;5075114;28;20373;-75
2022/05/09 08:00:58;;;;;;;12.48;4.25;;;24.70;50.60;;;;;;5074652;28;20028;-73
2022/05/09 08:03:25;;;;;;;13.25;4.10;;;24.80;51.10;;;;;;5068776;28;20059;-76
2022/05/09 08:05:53;;;;;;;15.32;3.83;;;24.80;50.70;;;;;;5068470;28;20021;-76
2022/05/09 08:08:19;;;;;;;8.77;3.00;;;24.80;50.30;;;;;;5069888;28;20052;-75
2022/05/09 08:10:45;;;;;;;11.52;3.47;;;24.80;49.70;;;;;;5069632;28;20029;-72
2022/05/09 08:13:13;;;;;;;9.80;2.85;;;24.70;49.30;;;;;;5069456;28;20032;-73
2022/05/09 08:15:39;;;;;;;18.20;4.18;;;24.50;49.30;;;;;;5069419;28;20033;-74
2022/05/09 08:18:05;;;;;;;12.85;3.50;;;24.50;50.00;;;;;;5069510;28;20040;-73
2022/05/09 08:20:33;;;;;;;29.80;3.72;;;24.40;49.40;;;;;;5069763;28;20394;-73
2022/05/09 08:23:07;;;;;;;29.02;4.40;;;24.40;49.80;;;;;;5069304;28;20075;-72
2022/05/09 08:25:34;;;;;;;16.08;4.03;;;24.40;50.10;;;;;;5069746;28;20068;-74
2022/05/09 08:28:04;;;;;;;16.75;3.83;;;24.30;49.70;;;;;;5069521;28;20029;-76
2022/05/09 08:30:35;;;;;;;28.80;4.75;;;24.30;49.80;;;;;;5069387;28;20056;-75
2022/05/09 08:33:04;;;;;;;14.75;3.42;;;24.20;49.70;;;;;;5069607;28;20496;-76
2022/05/09 08:35:32;;;;;;;12.05;3.58;;;24.20;49.60;;;;;;5069083;28;20025;-76
2022/05/09 08:37:58;;;;;;;10.57;3.97;;;24.20;48.70;;;;;;5069404;28;20143;-75
2022/05/09 08:40:35;;;;;;;16.75;3.40;;;24.10;49.40;;;;;;5069238;28;20116;-75
2022/05/09 08:43:20;;;;;;;6.22;3.05;;;24.20;49.30;;;;;;5069319;28;20126;-75
2022/05/09 08:45:59;;;;;;;9.68;3.17;;;24.10;49.50;;;;;;5068837;28;20028;-72
2022/05/09 08:48:57;;;;;;;7.15;2.90;;;24.00;49.40;;;;;;5064585;28;20029;-72
2022/05/09 08:51:48;;;;;;;8.77;3.45;;;23.90;48.50;;;;;;5054796;28;20033;-73
2022/05/09 08:54:19;;;;;;;8.52;3.08;;;23.80;48.90;;;;;;5055650;28;20071;-74
2022/05/09 08:56:50;;;;;;;12.27;3.22;;;23.80;49.40;;;;;;5055535;28;20442;-76
2022/05/09 08:59:28;;;;;;;10.43;3.22;;;23.70;49.20;;;;;;5055329;28;20037;-73
2022/05/09 09:02:12;;;;;;;50.75;24.52;;;23.70;48.50;;;;;;5055674;28;20024;-75
2022/05/09 09:04:38;;;;;;;72.78;36.58;;;23.80;49.70;;;;;;5055414;28;20028;-77
2022/05/09 09:07:10;;;;;;;30.25;12.30;;;23.80;49.70;;;;;;5055325;28;20029;-74
2022/05/09 09:09:54;;;;;;;15.18;6.57;;;23.90;49.50;;;;;;5055493;28;20033;-74
2022/05/09 09:12:38;;;;;;;17.10;3.72;;;24.00;49.00;;;;;;5055503;28;20406;-74
2022/05/09 09:15:29;;;;;;;12.73;3.65;;;24.00;47.50;;;;;;5055127;28;20107;-74
2022/05/09 09:18:09;;;;;;;11.55;3.47;;;23.80;47.50;;;;;;5055488;28;20041;-76
2022/05/09 09:20:57;;;;;;;12.63;4.25;;;23.70;47.40;;;;;;5055273;28;20076;-74
2022/05/09 09:23:38;;;;;;;14.45;3.55;;;23.70;48.00;;;;;;5055068;28;20017;-73
2022/05/09 09:26:24;;;;;;;6.47;3.30;;;23.70;47.40;;;;;;5054998;28;20382;-73
2022/05/09 09:28:57;;;;;;;7.78;3.22;;;23.80;46.10;;;;;;5054928;28;20044;-73
2022/05/09 09:31:28;;;;;;;8.05;2.90;;;23.80;47.00;;;;;;5055136;28;20039;-72
2022/05/09 09:34:02;;;;;;;10.80;3.17;;;24.00;46.90;;;;;;5054859;28;20025;-74
2022/05/09 09:36:35;;;;;;;8.07;3.20;;;23.90;46.50;;;;;;5054940;28;20080;-75
2022/05/09 09:39:16;;;;;;;10.13;3.13;;;23.90;46.50;;;;;;5054609;28;20033;-72
2022/05/09 09:41:42;;;;;;;8.93;3.10;;;24.10;46.90;;;;;;5054896;28;20345;-73
2022/05/09 09:44:08;;;;;;;13.25;3.58;;;24.30;46.60;;;;;;5054671;28;20510;-74
2022/05/09 09:46:34;;;;;;;11.02;3.15;;;24.50;46.10;;;;;;5054627;28;20025;-74
2022/05/09 09:49:07;;;;;;;9.32;3.20;;;24.60;45.80;;;;;;5054350;28;20060;-75
2022/05/09 09:51:44;;;;;;;12.63;3.50;;;24.60;45.30;;;;;;5037124;28;20083;-76
2022/05/09 09:54:11;;;;;;;8.82;3.35;;;24.70;45.20;;;;;;5054807;28;20036;-74
2022/05/09 09:56:36;;;;;;;9.73;3.15;;;24.80;45.10;;;;;;5054568;28;20091;-76
2022/05/09 09:59:11;;;;;;;9.40;3.08;;;25.00;45.20;;;;;;5054247;28;20409;-77
2022/05/09 10:01:37;;;;;;;7.18;2.90;;;25.20;45.50;;;;;;5053218;28;20108;-73
2022/05/09 10:04:09;;;;;;;8.32;2.67;;;25.20;45.20;;;;;;5054385;28;20029;-72
2022/05/09 10:06:54;;;;;;;9.65;2.97;;;25.10;45.00;;;;;;5054275;28;20032;-74
2022/05/09 10:09:21;;;;;;;8.70;2.53;;;25.10;45.00;;;;;;5053887;28;20044;-74
2022/05/09 10:11:48;;;;;;;12.27;3.17;;;25.10;44.90;;;;;;5053994;28;20359;-76
2022/05/09 10:14:34;;;;;;;8.50;2.80;;;25.00;44.30;;;;;;5053515;28;20061;-74
2022/05/09 10:17:20;;;;;;;9.40;3.28;;;25.10;43.30;;;;;;5053799;28;20060;-74
2022/05/09 10:19:47;;;;;;;12.20;3.40;;;25.20;44.20;;;;;;5053450;28;20466;-74
2022/05/09 10:25:16;;;;;;;7.38;3.08;;;25.50;44.20;;;;;;5053740;28;20094;-73
2022/05/09 10:27:42;;;;;;;9.68;3.80;;;25.70;43.80;;;;;;5053366;28;20101;-71
2022/05/09 10:30:32;;;;;;;6.90;3.55;;;25.70;43.60;;;;;;5053334;28;20064;-73
2022/05/09 10:33:01;;;;;;;10.63;3.83;;;25.80;42.80;;;;;;5053603;28;20063;-73
2022/05/09 10:35:40;;;;;;;8.45;3.05;;;25.90;42.80;;;;;;5053230;28;20029;-76
2022/05/09 10:38:13;;;;;;;10.38;3.28;;;25.90;40.80;;;;;;5053115;28;20052;-74
2022/05/09 10:40:44;;;;;;;10.23;3.38;;;26.00;42.50;;;;;;5052103;28;20037;-73
2022/05/09 10:43:39;;;;;;;8.60;3.17;;;26.10;42.80;;;;;;5053513;28;20049;-73
2022/05/09 10:46:11;;;;;;;8.98;2.90;;;26.10;41.10;;;;;;5053040;28;20028;-72
2022/05/09 10:48:45;;;;;;;7.18;2.80;;;26.10;42.90;;;;;;5053108;28;20035;-72
2022/05/09 10:51:32;;;;;;;13.07;3.78;;;26.10;43.70;;;;;;5053119;28;20032;-73
2022/05/09 10:54:14;;;;;;;7.07;3.10;;;26.10;42.60;;;;;;5053419;28;20025;-74
2022/05/09 10:57:09;;;;;;;13.05;3.72;;;26.10;43.30;;;;;;5057472;28;20470;-72
2022/05/09 10:59:41;;;;;;;11.48;3.33;;;26.10;43.60;;;;;;5055081;28;20128;-73
2022/05/09 11:02:22;;;;;;;11.80;2.92;;;25.90;43.40;;;;;;5053489;28;20025;-73
2022/05/09 11:04:47;;;;;;;12.85;3.30;;;25.70;42.80;;;;;;5053158;28;20052;-73
2022/05/09 11:07:19;;;;;;;13.30;4.53;;;25.50;44.20;;;;;;5052108;28;20025;-73
2022/05/09 11:09:54;;;;;;;10.75;4.47;;;25.40;43.40;;;;;;5053503;28;20513;-75
2022/05/09 11:12:47;;;;;;;10.10;3.70;;;25.40;44.00;;;;;;5053026;28;20024;-74
2022/05/09 11:15:27;;;;;;;11.80;3.42;;;25.30;45.50;;;;;;5053412;28;20033;-73
2022/05/09 11:18:17;;;;;;;11.95;3.63;;;25.20;44.50;;;;;;5053097;28;20121;-73
2022/05/09 11:20:58;;;;;;;8.63;3.55;;;25.10;45.20;;;;;;5053137;28;20048;-73
2022/05/09 11:23:36;;;;;;;8.77;3.22;;;25.00;47.00;;;;;;5053158;28;20390;-74
2022/05/09 11:26:29;;;;;;;10.82;3.30;;;25.00;47.30;;;;;;5052971;28;20018;-74
2022/05/09 11:29:17;;;;;;;14.15;3.70;;;25.20;46.90;;;;;;5053028;28;20087;-75
2022/05/09 11:31:46;;;;;;;11.50;3.05;;;25.30;47.20;;;;;;5053412;28;20504;-74
2022/05/09 11:34:41;;;;;;;7.97;3.63;;;25.40;47.90;;;;;;5052984;28;20092;-72
2022/05/09 11:37:09;;;;;;;8.65;3.50;;;25.30;47.20;;;;;;5051497;28;20472;-75
2022/05/09 11:40:03;;;;;;;10.32;3.45;;;25.30;47.70;;;;;;5053359;28;20067;-72
2022/05/09 11:45:37;;;;;;;11.52;3.60;;;25.50;46.40;;;;;;5052917;28;20051;-74
2022/05/09 11:48:27;;;;;;;9.10;3.47;;;25.70;46.90;;;;;;5052068;28;20052;-74
2022/05/09 11:51:25;;;;;;;10.93;4.03;;;25.80;45.50;;;;;;5052939;28;20068;-72
2022/05/09 11:54:00;;;;;;;9.90;3.70;;;25.90;45.70;;;;;;5052844;28;20045;-73
2022/05/09 11:56:28;;;;;;;11.32;3.67;;;25.90;44.80;;;;;;5052596;28;20021;-74
2022/05/09 11:58:55;;;;;;;10.23;4.57;;;25.90;46.20;;;;;;5052856;28;20163;-74
2022/05/09 12:01:56;;;;;;;10.50;4.53;;;25.90;46.10;;;;;;5052538;28;20514;-73
2022/05/09 12:04:40;;;;;;;10.60;4.20;;;26.10;44.10;;;;;;5052593;28;20021;-73
2022/05/09 12:07:21;;;;;;;9.60;3.67;;;26.20;45.30;;;;;;5052641;28;20025;-74
2022/05/09 12:10:11;;;;;;;12.35;3.80;;;26.20;44.20;;;;;;5052656;28;20028;-71
2022/05/09 12:12:37;;;;;;;8.40;3.78;;;26.00;43.20;;;;;;5052476;28;20037;-72
2022/05/09 12:15:12;;;;;;;9.07;3.80;;;25.90;44.90;;;;;;5052646;28;20028;-73
2022/05/09 12:17:39;;;;;;;10.70;4.05;;;25.80;44.40;;;;;;5051034;28;20037;-74
2022/05/09 12:20:27;;;;;;;11.55;4.28;;;25.70;45.80;;;;;;5052304;28;20561;-73
2022/05/09 12:22:56;;;;;;;15.35;3.85;;;25.70;45.20;;;;;;5050997;28;20033;-72
2022/05/09 12:25:39;;;;;;;9.63;3.95;;;25.60;45.30;;;;;;5055752;28;20023;-73
2022/05/09 12:28:24;;;;;;;11.30;3.70;;;25.50;44.80;;;;;;5056213;28;20087;-72
2022/05/09 12:31:10;;;;;;;13.43;4.47;;;25.40;44.80;;;;;;5056118;28;20021;-74
2022/05/09 12:33:45;;;;;;;9.88;3.40;;;25.60;43.80;;;;;;5056049;28;20047;-73
2022/05/09 12:36:18;;;;;;;13.68;3.95;;;25.70;44.20;;;;;;5055806;28;20025;-74
2022/05/09 12:38:47;;;;;;;8.05;3.33;;;25.70;44.20;;;;;;5055878;28;20044;-74
2022/05/09 12:41:23;;;;;;;13.02;3.70;;;25.80;44.00;;;;;;5055963;28;20474;-75
2022/05/09 12:43:55;;;;;;;11.05;3.97;;;26.10;42.90;;;;;;5055827;28;20673;-75
2022/05/09 12:46:34;;;;;;;10.00;3.47;;;26.40;44.00;;;;;;5056036;28;20056;-72
2022/05/09 12:49:05;;;;;;;12.90;3.75;;;26.80;42.40;;;;;;5055805;28;20021;-73
2022/05/09 12:51:34;;;;;;;8.90;3.88;;;26.90;43.40;;;;;;5055700;28;20033;-73
2022/05/09 12:54:08;;;;;;;10.77;3.58;;;26.90;43.30;;;;;;5055705;28;20025;-74
2022/05/09 12:56:37;;;;;;;25.48;4.43;;;26.80;43.60;;;;;;5055840;28;20112;-74
2022/05/09 12:59:11;;;;;;;9.95;3.70;;;26.70;43.70;;;;;;5055596;28;20430;-74
2022/05/09 13:01:43;;;;;;;15.75;4.40;;;26.60;44.20;;;;;;5055359;28;20044;-73
2022/05/09 13:04:28;;;;;;;19.77;4.13;;;26.50;43.70;;;;;;5055254;28;20086;-74
2022/05/09 13:07:01;;;;;;;13.18;4.18;;;26.20;43.20;;;;;;5055642;28;20017;-74
2022/05/09 13:09:30;;;;;;;20.77;4.60;;;26.10;44.40;;;;;;5055374;28;20039;-72
2022/05/09 13:12:06;;;;;;;10.75;4.00;;;26.00;44.40;;;;;;5055375;28;20092;-74
2022/05/09 13:14:45;;;;;;;11.35;4.05;;;25.90;43.90;;;;;;5055039;28;20033;-74